createdAt,value
2019-06-10T00:03:45.034Z,96.80
2019-06-10T00:08:03.857Z,96.90
2019-06-10T00:12:21.002Z,96.90
2019-06-10T00:16:38.113Z,96.80
2019-06-10T00:20:54.598Z,96.80
2019-06-10T00:25:12.015Z,96.80
2019-06-10T00:29:31.107Z,96.90
2019-06-10T00:33:47.153Z,96.90
2019-06-10T00:38:06.897Z,97.00
2019-06-10T00:42:21.958Z,97.30
2019-06-10T00:46:40.747Z,97.40
2019-06-10T00:50:56.726Z,97.60
2019-06-10T00:55:13.919Z,98.00
2019-06-10T00:59:31.194Z,97.80
2019-06-10T01:03:47.813Z,97.70
2019-06-10T01:08:04.630Z,97.60
2019-06-10T01:12:21.254Z,97.60
2019-06-10T01:16:38.345Z,97.70
2019-06-10T01:20:54.880Z,97.70
2019-06-10T01:25:12.372Z,97.80
2019-06-10T01:29:32.000Z,97.70
2019-06-10T01:33:48.442Z,97.70
2019-06-10T01:38:05.863Z,97.60
2019-06-10T01:42:22.568Z,97.20
2019-06-10T01:47:00.977Z,97.30
2019-06-10T01:51:18.031Z,97.30
2019-06-10T01:55:34.484Z,97.70
2019-06-10T01:59:51.059Z,97.60
2019-06-10T02:04:08.287Z,97.90
2019-06-10T02:08:25.003Z,97.90
2019-06-10T02:12:41.618Z,98.30
2019-06-10T02:16:58.298Z,98.50
2019-06-10T02:21:16.679Z,98.60
2019-06-10T02:25:33.088Z,98.40
2019-06-10T02:29:50.712Z,98.50
2019-06-10T02:34:07.388Z,99.00
2019-06-10T02:38:33.137Z,99.00
2019-06-10T02:42:44.198Z,99.20
2019-06-10T02:47:03.478Z,99.50
2019-06-10T02:51:22.098Z,99.80
2019-06-10T02:55:37.435Z,99.90
2019-06-10T02:59:54.520Z,99.90
2019-06-10T03:04:13.776Z,99.90
2019-06-10T03:08:32.771Z,99.90
2019-06-10T03:12:48.300Z,99.90
2019-06-10T03:17:06.939Z,99.90
2019-06-10T03:21:25.657Z,99.90
2019-06-10T03:25:42.287Z,99.90
2019-06-10T03:29:59.271Z,99.90
2019-06-10T03:34:18.150Z,99.90
2019-06-10T03:38:36.949Z,99.90
2019-06-10T03:42:52.519Z,99.90
2019-06-10T03:47:09.488Z,99.90
2019-06-10T03:51:27.373Z,99.90
2019-06-10T03:55:44.596Z,99.90
2019-06-10T04:00:10.439Z,99.90
2019-06-10T04:04:23.380Z,99.90
2019-06-10T04:08:39.493Z,99.90
2019-06-10T04:12:56.577Z,99.90
2019-06-10T04:17:13.153Z,99.90
2019-06-10T04:21:32.419Z,99.90
2019-06-10T04:25:48.454Z,99.90
2019-06-10T04:30:06.904Z,99.90
2019-06-10T04:34:25.890Z,99.90
2019-06-10T04:38:43.181Z,99.90
2019-06-10T04:42:59.983Z,99.90
2019-06-10T04:47:16.530Z,99.90
2019-06-10T04:51:33.172Z,99.90
2019-06-10T04:55:52.122Z,99.90
2019-06-10T05:00:12.070Z,99.90
2019-06-10T05:04:28.771Z,99.90
2019-06-10T05:08:46.090Z,99.90
2019-06-10T05:13:03.210Z,99.50
2019-06-10T05:17:19.834Z,99.20
2019-06-10T05:21:36.366Z,99.10
2019-06-10T05:25:56.174Z,97.80
2019-06-10T05:30:12.367Z,96.70
2019-06-10T05:34:29.987Z,95.90
2019-06-10T05:38:47.305Z,96.20
2019-06-10T05:43:03.858Z,94.60
2019-06-10T05:47:23.366Z,92.40
2019-06-10T05:51:39.439Z,92.00
2019-06-10T05:55:55.954Z,91.30
2019-06-10T06:00:27.558Z,90.50
2019-06-10T06:04:46.076Z,90.00
2019-06-10T06:09:05.505Z,90.70
2019-06-10T06:13:23.228Z,89.40
2019-06-10T06:17:43.214Z,86.50
2019-06-10T06:22:02.130Z,87.80
2019-06-10T06:26:18.582Z,86.60
2019-06-10T06:30:36.433Z,84.10
2019-06-10T06:34:53.971Z,84.50
2019-06-10T06:39:12.664Z,84.90
2019-06-10T06:43:30.677Z,86.50
2019-06-10T06:47:47.315Z,85.70
2019-06-10T06:52:04.261Z,86.60
2019-06-10T06:56:23.063Z,86.80
2019-06-10T07:00:57.845Z,81.00
2019-06-10T07:04:58.647Z,80.50
2019-06-10T07:09:16.013Z,79.10
2019-06-10T07:13:35.900Z,77.00
2019-06-10T07:17:53.288Z,74.40
2019-06-10T07:22:16.257Z,74.50
2019-06-10T07:26:34.172Z,76.40
2019-06-10T07:31:03.281Z,76.40
2019-06-10T07:35:19.168Z,73.50
2019-06-10T07:39:36.871Z,72.10
2019-06-10T07:43:54.567Z,73.30
2019-06-10T07:48:12.209Z,74.20
2019-06-10T07:52:28.830Z,74.20
2019-06-10T07:56:50.225Z,74.00
2019-06-10T08:01:03.917Z,72.50
2019-06-10T08:05:20.438Z,73.20
2019-06-10T08:09:37.366Z,69.80
2019-06-10T08:13:54.240Z,69.00
2019-06-10T08:18:13.000Z,67.10
2019-06-10T08:22:35.101Z,65.60
2019-06-10T08:26:49.149Z,63.10
2019-06-10T08:31:05.640Z,66.10
2019-06-10T08:35:37.673Z,63.70
2019-06-10T08:39:42.824Z,62.00
2019-06-10T08:43:59.511Z,64.10
2019-06-10T08:48:17.963Z,63.40
2019-06-10T08:52:50.679Z,63.70
2019-06-10T08:56:54.015Z,62.30
2019-06-10T09:01:13.490Z,62.40
2019-06-10T09:05:32.272Z,63.10
2019-06-10T09:09:50.299Z,63.40
2019-06-10T09:14:07.298Z,66.70
2019-06-10T09:18:24.351Z,68.60
2019-06-10T09:22:42.221Z,67.50
2019-06-10T09:26:59.415Z,64.20
2019-06-10T09:31:15.924Z,67.80
2019-06-10T09:35:32.568Z,66.50
2019-06-10T09:39:58.002Z,63.30
2019-06-10T09:44:07.824Z,61.70
2019-06-10T09:48:24.562Z,61.40
2019-06-10T09:52:47.149Z,60.40
2019-06-10T09:57:02.446Z,59.40
2019-06-10T10:01:19.405Z,60.20
2019-06-10T10:05:35.949Z,63.30
2019-06-10T10:09:57.066Z,59.10
2019-06-10T10:14:16.028Z,59.10
2019-06-10T10:18:33.426Z,61.00
2019-06-10T10:22:50.525Z,60.50
2019-06-10T10:27:10.240Z,60.40
2019-06-10T10:31:26.920Z,59.90
2019-06-10T10:35:46.081Z,59.40
2019-06-10T10:40:03.954Z,59.60
2019-06-10T10:44:20.663Z,58.90
2019-06-10T10:48:37.174Z,58.60
2019-06-10T10:52:54.016Z,58.00
2019-06-10T10:57:13.054Z,58.30
2019-06-10T11:01:29.194Z,57.50
2019-06-10T11:05:48.100Z,57.10
2019-06-10T11:10:06.746Z,56.70
2019-06-10T11:14:23.743Z,56.00
2019-06-10T11:18:42.299Z,56.90
2019-06-10T11:22:59.033Z,55.20
2019-06-10T11:27:15.552Z,55.30
2019-06-10T11:31:32.868Z,55.10
2019-06-10T11:35:51.482Z,54.90
2019-06-10T11:40:09.195Z,54.50
2019-06-10T11:44:26.128Z,53.50
2019-06-10T11:48:43.456Z,54.80
2019-06-10T11:53:03.992Z,55.10
2019-06-10T11:57:19.727Z,54.20
2019-06-10T12:01:36.289Z,54.00
2019-06-10T12:05:55.764Z,53.80
2019-06-10T12:10:14.141Z,55.70
2019-06-10T12:14:33.172Z,56.90
2019-06-10T12:18:49.413Z,57.30
2019-06-10T12:23:06.389Z,57.20
2019-06-10T12:27:22.971Z,58.00
2019-06-10T12:31:39.757Z,56.90
2019-06-10T12:35:59.532Z,54.30
2019-06-10T12:40:16.342Z,50.70
2019-06-10T12:44:33.674Z,47.90
2019-06-10T12:48:52.742Z,47.10
2019-06-10T12:53:09.346Z,45.30
2019-06-10T12:57:25.825Z,47.10
2019-06-10T13:01:44.898Z,48.00
2019-06-10T13:06:07.361Z,48.90
2019-06-10T13:10:35.575Z,48.70
2019-06-10T13:14:52.186Z,48.50
2019-06-10T13:19:08.687Z,50.70
2019-06-10T13:23:31.607Z,50.80
2019-06-10T13:27:51.793Z,49.10
2019-06-10T13:32:08.212Z,49.60
2019-06-10T13:36:26.139Z,49.20
2019-06-10T13:40:43.820Z,50.70
2019-06-10T13:45:03.428Z,50.40
2019-06-10T13:49:19.017Z,47.50
2019-06-10T13:53:35.638Z,45.60
2019-06-10T13:57:53.334Z,46.30
2019-06-10T14:02:11.786Z,44.90
2019-06-10T14:06:44.565Z,45.30
2019-06-10T14:10:49.144Z,45.10
2019-06-10T14:15:09.341Z,43.80
2019-06-10T14:19:24.870Z,43.70
2019-06-10T14:23:42.472Z,43.90
2019-06-10T14:27:59.515Z,44.00
2019-06-10T14:32:16.374Z,46.10
2019-06-10T14:36:32.903Z,45.10
2019-06-10T14:40:49.508Z,45.60
2019-06-10T14:45:06.849Z,45.30
2019-06-10T14:49:23.424Z,45.10
2019-06-10T14:53:42.513Z,45.50
2019-06-10T14:57:58.416Z,46.20
2019-06-10T15:02:16.091Z,44.60
2019-06-10T15:06:34.029Z,44.90
2019-06-10T15:10:52.736Z,45.50
2019-06-10T15:15:10.580Z,45.40
2019-06-10T15:19:29.143Z,44.60
2019-06-10T15:23:45.720Z,45.70
2019-06-10T15:28:03.277Z,46.10
2019-06-10T15:32:32.663Z,45.10
2019-06-10T15:36:38.446Z,46.10
2019-06-10T15:40:54.993Z,45.30
2019-06-10T15:45:15.303Z,45.90
2019-06-10T15:49:32.757Z,46.80
2019-06-10T15:53:49.414Z,47.60
2019-06-10T15:58:06.048Z,50.30
2019-06-10T16:02:25.446Z,50.20
2019-06-10T16:06:42.481Z,51.10
2019-06-10T16:10:59.148Z,52.70
2019-06-10T16:15:18.160Z,54.60
2019-06-10T16:19:35.660Z,56.10
2019-06-10T16:23:53.363Z,57.30
2019-06-10T16:28:12.645Z,59.40
2019-06-10T16:32:28.719Z,61.70
2019-06-10T16:36:45.253Z,63.10
2019-06-10T16:41:17.451Z,64.80
2019-06-10T16:45:34.162Z,66.50
2019-06-10T16:49:52.240Z,67.30
2019-06-10T16:54:08.933Z,68.90
2019-06-10T16:58:27.980Z,69.60
2019-06-10T17:02:44.301Z,69.60
2019-06-10T17:07:02.133Z,70.40
2019-06-10T17:11:18.850Z,72.30
2019-06-10T17:15:36.066Z,73.60
2019-06-10T17:19:52.623Z,74.20
2019-06-10T17:24:09.391Z,75.00
2019-06-10T17:28:29.766Z,75.80
2019-06-10T17:32:45.674Z,76.90
2019-06-10T17:37:03.136Z,77.80
2019-06-10T17:41:21.320Z,79.00
2019-06-10T17:45:38.696Z,82.80
2019-06-10T17:49:55.504Z,87.90
2019-06-10T17:54:15.712Z,93.60
2019-06-10T17:58:49.268Z,99.90
2019-06-10T18:02:53.396Z,99.90
2019-06-10T18:07:09.323Z,99.90
2019-06-10T18:11:29.929Z,99.90
2019-06-10T18:15:49.859Z,99.90
2019-06-10T18:20:06.883Z,99.90
2019-06-10T18:24:25.756Z,99.90
2019-06-10T18:29:00.422Z,99.90
2019-06-10T18:33:10.295Z,99.90
2019-06-10T18:37:33.320Z,99.90
2019-06-10T18:41:52.929Z,99.90
2019-06-10T18:46:12.741Z,99.90
2019-06-10T18:50:36.092Z,99.90
2019-06-10T18:54:53.960Z,99.90
2019-06-10T18:59:20.660Z,99.90
